Time;durP1;ratioP1;P1;durP2;ratioP2;P2;SDS_P1;SDS_P2;PMS_P1;PMS_P2;Temp;Humidity;BMP_temperature;BMP_pressure;BME280_temperature;BME280_humidity;BME280_pressure;Samples;Min_cycle;Max_cycle;Signal;HPM_P1;HPM_P2
2022/09/13 00:00:30;;;;;;;6.22;5.68;;;20.80;92.70;;;;;;4954504;28;20038;-85
2022/09/13 00:02:59;;;;;;;6.35;5.32;;;20.80;92.70;;;;;;4955943;29;20032;-85
2022/09/13 00:05:26;;;;;;;6.15;5.45;;;20.80;92.80;;;;;;4949902;29;20027;-85
2022/09/13 00:07:51;;;;;;;7.85;5.95;;;20.80;92.80;;;;;;4940016;29;20082;-85
2022/09/13 00:10:17;;;;;;;10.07;5.95;;;20.80;92.80;;;;;;4955602;29;20035;-86
2022/09/13 00:12:46;;;;;;;7.03;6.18;;;20.70;92.80;;;;;;4939546;29;20027;-85
2022/09/13 00:15:17;;;;;;;7.53;5.95;;;20.80;92.90;;;;;;4939835;29;20098;-86
2022/09/13 00:17:43;;;;;;;7.10;5.80;;;20.70;92.90;;;;;;4955509;29;20114;-84
2022/09/13 00:20:09;;;;;;;6.40;5.80;;;20.70;92.90;;;;;;4955622;29;20023;-85
2022/09/13 00:22:36;;;;;;;5.80;5.25;;;20.70;92.90;;;;;;4955357;29;20421;-84
2022/09/13 00:25:04;;;;;;;6.60;5.68;;;20.70;92.90;;;;;;4956217;29;20473;-85
2022/09/13 00:27:33;;;;;;;7.10;6.40;;;20.70;93.00;;;;;;4955637;28;20024;-85
2022/09/13 00:29:59;;;;;;;6.95;6.28;;;20.70;93.00;;;;;;4956900;29;20027;-85
2022/09/13 00:32:28;;;;;;;9.43;5.75;;;20.70;93.00;;;;;;4939627;29;20450;-85
2022/09/13 00:34:54;;;;;;;7.05;5.78;;;20.70;93.00;;;;;;4955542;29;20114;-85
2022/09/13 00:37:25;;;;;;;8.77;6.40;;;20.70;93.00;;;;;;4923603;29;20480;-85
2022/09/13 00:39:53;;;;;;;;;;;20.60;93.00;;;;;;4956195;29;20038;-85
2022/09/13 00:42:36;;;;;;;8.00;6.05;;;20.60;93.00;;;;;;4956499;29;19930;-86
2022/09/13 00:45:14;;;;;;;8.45;6.05;;;20.60;93.00;;;;;;4956857;29;20031;-85
2022/09/13 00:48:02;;;;;;;7.70;6.35;;;20.60;93.10;;;;;;4955265;29;20046;-85
2022/09/13 00:50:38;;;;;;;6.93;6.20;;;20.60;93.10;;;;;;4954884;29;20051;-85
2022/09/13 00:53:11;;;;;;;6.80;5.78;;;20.60;93.10;;;;;;4939228;29;20036;-85
2022/09/13 00:55:46;;;;;;;6.60;5.55;;;20.60;93.10;;;;;;4955726;29;20027;-85
2022/09/13 00:58:22;;;;;;;7.03;6.22;;;20.70;93.20;;;;;;4955162;29;20032;-85
2022/09/13 01:00:49;;;;;;;8.10;6.57;;;20.60;93.20;;;;;;4955167;29;20036;-85
2022/09/13 01:03:23;;;;;;;7.18;5.75;;;20.60;93.20;;;;;;4938952;29;20039;-84
2022/09/13 01:06:04;;;;;;;6.47;5.78;;;20.60;93.20;;;;;;4955253;29;20027;-85
2022/09/13 01:08:31;;;;;;;;;;;20.60;93.20;;;;;;4955602;29;20034;-86
2022/09/13 01:11:00;;;;;;;6.57;5.43;;;20.60;93.20;;;;;;4957847;28;19913;-85
2022/09/13 01:13:31;;;;;;;7.20;5.30;;;20.60;93.20;;;;;;4959619;29;20485;-86
2022/09/13 01:15:59;;;;;;;6.40;5.75;;;20.60;93.30;;;;;;4958632;29;20090;-86
2022/09/13 01:18:25;;;;;;;6.72;6.00;;;20.60;93.30;;;;;;4958639;29;20451;-86
2022/09/13 01:20:54;;;;;;;7.03;6.32;;;20.60;93.30;;;;;;4958158;29;20122;-86
2022/09/13 01:23:52;;;;;;;5.78;5.10;;;20.60;93.30;;;;;;4958132;29;20087;-84
2022/09/13 01:26:55;;;;;;;6.65;6.00;;;20.60;93.40;;;;;;4915139;29;20039;-84
2022/09/13 01:29:51;;;;;;;5.97;4.88;;;20.60;93.40;;;;;;4958577;29;20024;-85
2022/09/13 01:32:23;;;;;;;5.75;5.10;;;20.60;93.40;;;;;;4961559;29;20030;-84
2022/09/13 01:35:31;;;;;;;6.20;5.60;;;20.60;93.40;;;;;;4980963;28;20015;-84
2022/09/13 01:38:30;;;;;;;6.03;5.43;;;20.60;93.50;;;;;;4981007;28;20050;-84
2022/09/13 01:41:36;;;;;;;6.38;5.78;;;20.60;93.50;;;;;;4982363;28;20011;-86
2022/09/13 01:44:12;;;;;;;5.78;5.18;;;20.60;93.50;;;;;;4981356;28;20027;-83
2022/09/13 01:46:45;;;;;;;6.50;5.82;;;20.60;93.50;;;;;;4975816;29;20035;-85
2022/09/13 01:49:33;;;;;;;7.28;5.65;;;20.60;93.60;;;;;;4974211;28;20051;-86
2022/09/13 01:52:01;;;;;;;6.78;5.95;;;20.60;93.60;;;;;;4960916;29;20071;-85
2022/09/13 01:54:36;;;;;;;8.27;6.28;;;20.60;93.60;;;;;;4957181;28;20023;-84
2022/09/13 01:57:27;;;;;;;7.60;6.15;;;20.60;93.60;;;;;;4957657;29;20035;-86
2022/09/13 02:00:07;;;;;;;8.45;6.65;;;20.60;93.60;;;;;;4958052;29;20087;-86
2022/09/13 02:02:47;;;;;;;7.70;6.90;;;20.60;93.60;;;;;;4959027;29;20027;-84
2022/09/13 02:06:02;;;;;;;8.70;6.93;;;20.60;93.60;;;;;;4957146;29;20067;-84
2022/09/13 02:08:36;;;;;;;7.20;6.50;;;20.60;93.50;;;;;;4938081;29;20046;-85
2022/09/13 02:11:14;;;;;;;6.80;6.20;;;20.60;93.50;;;;;;4957451;29;20042;-84
2022/09/13 02:14:06;;;;;;;7.32;6.63;;;20.50;93.50;;;;;;4957912;29;20031;-86
2022/09/13 02:16:40;;;;;;;7.10;6.00;;;20.60;93.60;;;;;;4957363;29;20035;-83
2022/09/13 02:19:19;;;;;;;6.72;6.13;;;20.50;93.60;;;;;;4957314;29;20083;-85
2022/09/13 02:21:59;;;;;;;6.63;5.85;;;20.50;93.60;;;;;;4957266;28;20027;-85
2022/09/13 02:24:32;;;;;;;6.82;6.15;;;20.50;93.70;;;;;;4956997;29;20034;-85
2022/09/13 02:27:12;;;;;;;8.32;6.18;;;20.50;93.70;;;;;;4957604;29;20380;-85
2022/09/13 02:29:46;;;;;;;7.50;6.80;;;20.50;93.70;;;;;;4956861;29;20027;-86
2022/09/13 02:32:43;;;;;;;7.30;6.60;;;20.50;93.70;;;;;;4958625;29;20270;-85
2022/09/13 02:35:40;;;;;;;7.30;6.60;;;20.50;93.70;;;;;;4956900;29;20063;-85
2022/09/13 02:38:15;;;;;;;7.38;6.68;;;20.50;93.60;;;;;;4956285;29;20073;-85
2022/09/13 02:40:48;;;;;;;6.25;5.63;;;20.50;93.60;;;;;;4941162;29;20050;-85
2022/09/13 02:43:24;;;;;;;6.78;6.07;;;20.60;93.60;;;;;;4957412;29;20031;-85
2022/09/13 02:46:06;;;;;;;7.18;6.00;;;20.50;93.60;;;;;;4957433;29;20377;-84
2022/09/13 02:48:40;;;;;;;7.18;6.47;;;20.50;93.70;;;;;;4956894;29;20035;-86
2022/09/13 02:51:29;;;;;;;7.15;6.35;;;20.50;93.70;;;;;;4957087;29;20042;-84
2022/09/13 02:54:29;;;;;;;10.15;7.43;;;20.50;93.70;;;;;;4956289;29;20038;-84
2022/09/13 02:57:17;;;;;;;7.00;6.32;;;20.50;93.60;;;;;;4957180;29;20019;-85
2022/09/13 02:59:45;;;;;;;7.88;7.15;;;20.50;93.60;;;;;;4957050;29;20115;-85
2022/09/13 03:02:19;;;;;;;8.68;7.40;;;20.50;93.60;;;;;;4940932;29;20035;-85
2022/09/13 03:04:44;;;;;;;7.55;6.70;;;20.50;93.60;;;;;;4957099;29;20035;-85
2022/09/13 03:07:14;;;;;;;7.90;7.10;;;20.50;93.60;;;;;;4941427;29;20031;-85
2022/09/13 03:09:52;;;;;;;7.43;6.72;;;20.50;93.60;;;;;;4940780;29;20469;-87
2022/09/13 03:12:39;;;;;;;7.95;7.15;;;20.50;93.60;;;;;;4957034;29;20532;-85
2022/09/13 03:15:28;;;;;;;8.18;7.38;;;20.50;93.60;;;;;;4956976;29;20023;-85
2022/09/13 03:18:20;;;;;;;7.55;6.78;;;20.50;93.60;;;;;;4956796;29;20039;-87
2022/09/13 03:20:56;;;;;;;9.00;7.28;;;20.50;93.70;;;;;;4956941;29;20027;-85
2022/09/13 03:23:40;;;;;;;8.30;7.50;;;20.40;93.60;;;;;;4956767;29;20362;-85
2022/09/13 03:26:24;;;;;;;8.90;8.10;;;20.40;93.60;;;;;;4956589;29;20502;-84
2022/09/13 03:29:26;;;;;;;9.45;7.95;;;20.40;93.50;;;;;;4956785;29;20031;-86
2022/09/13 03:32:05;;;;;;;7.47;6.75;;;20.40;93.50;;;;;;4963940;29;20082;-85
2022/09/13 03:35:03;;;;;;;8.85;8.05;;;20.50;93.50;;;;;;4977726;28;20024;-87
2022/09/13 03:37:59;;;;;;;10.27;7.55;;;20.40;93.50;;;;;;4980056;28;20078;-87
2022/09/13 03:40:40;;;;;;;10.45;8.30;;;20.50;93.60;;;;;;4979737;28;20094;-86
2022/09/13 03:43:14;;;;;;;9.45;8.30;;;20.50;93.50;;;;;;4978830;29;20027;-85
2022/09/13 03:45:47;;;;;;;9.02;8.13;;;20.40;93.50;;;;;;4955753;29;20024;-85
2022/09/13 03:48:14;;;;;;;9.20;8.30;;;20.50;93.80;;;;;;4955445;29;20082;-85
2022/09/13 03:50:41;;;;;;;9.13;8.23;;;20.50;93.50;;;;;;4939753;29;20110;-84
2022/09/13 03:53:10;;;;;;;9.90;8.75;;;20.40;93.40;;;;;;4955937;29;20024;-85
2022/09/13 03:55:40;;;;;;;8.45;7.65;;;20.50;93.40;;;;;;4955825;29;20115;-85
2022/09/13 03:58:09;;;;;;;8.60;7.68;;;20.50;93.50;;;;;;4940135;29;20070;-84
2022/09/13 04:00:37;;;;;;;9.77;8.75;;;20.40;93.50;;;;;;4940576;29;20035;-85
2022/09/13 04:03:04;;;;;;;9.05;8.15;;;20.40;93.50;;;;;;4955446;29;20042;-84
2022/09/13 04:05:29;;;;;;;10.32;8.77;;;20.50;93.50;;;;;;4955477;29;20039;-85
2022/09/13 04:07:55;;;;;;;9.55;8.30;;;20.40;93.40;;;;;;4957041;29;20054;-86
2022/09/13 04:10:23;;;;;;;8.85;8.00;;;20.50;93.40;;;;;;4954890;29;20031;-85
2022/09/13 04:12:48;;;;;;;8.13;7.30;;;20.40;93.40;;;;;;4955298;29;20031;-84
2022/09/13 04:15:15;;;;;;;8.88;8.00;;;20.50;93.50;;;;;;4955883;29;20035;-86
2022/09/13 04:17:41;;;;;;;8.88;8.00;;;20.40;93.50;;;;;;4954916;29;20035;-84
2022/09/13 04:20:07;;;;;;;9.80;8.90;;;20.40;93.60;;;;;;4939574;29;20047;-83
2022/09/13 04:22:33;;;;;;;9.93;8.93;;;20.40;93.60;;;;;;4939309;29;20041;-83
2022/09/13 04:24:59;;;;;;;10.57;9.57;;;20.40;93.50;;;;;;4955642;29;20106;-85
2022/09/13 04:27:25;;;;;;;10.40;9.40;;;20.40;93.50;;;;;;4955428;29;20027;-84
2022/09/13 04:29:51;;;;;;;11.07;10.00;;;20.40;93.50;;;;;;4955865;29;20090;-84
2022/09/13 04:32:18;;;;;;;9.88;8.82;;;20.40;93.50;;;;;;4939410;29;20035;-85
2022/09/13 04:34:49;;;;;;;10.52;9.43;;;20.40;93.50;;;;;;4955024;29;20023;-85
2022/09/13 04:37:15;;;;;;;11.55;9.60;;;20.40;93.50;;;;;;4939560;29;20039;-85
2022/09/13 04:39:41;;;;;;;9.82;8.68;;;20.40;93.40;;;;;;4956263;29;20111;-84
2022/09/13 04:42:10;;;;;;;10.25;9.25;;;20.40;93.50;;;;;;4956529;29;20450;-86
2022/09/13 04:44:39;;;;;;;10.27;9.18;;;20.40;93.50;;;;;;4939304;28;20027;-86
2022/09/13 04:47:08;;;;;;;9.70;8.77;;;20.40;93.50;;;;;;4958555;29;20443;-86
2022/09/13 04:49:36;;;;;;;9.95;8.95;;;20.40;93.50;;;;;;4959008;28;20051;-86
2022/09/13 04:52:07;;;;;;;9.45;8.40;;;20.40;93.50;;;;;;4959514;29;20533;-86
2022/09/13 04:54:36;;;;;;;;;;;20.40;93.50;;;;;;4959839;29;20034;-85
2022/09/13 04:57:02;;;;;;;9.57;8.60;;;20.40;93.40;;;;;;4958717;29;19941;-84
2022/09/13 04:59:28;;;;;;;10.13;9.13;;;20.40;93.40;;;;;;4942655;29;20068;-86
2022/09/13 05:01:54;;;;;;;10.00;9.00;;;20.40;93.50;;;;;;4943499;29;20039;-86
2022/09/13 05:04:20;;;;;;;9.93;8.93;;;20.40;93.40;;;;;;4959708;29;20114;-86
2022/09/13 05:06:47;;;;;;;10.13;9.15;;;20.40;93.50;;;;;;4958972;29;20489;-86
2022/09/13 05:09:15;;;;;;;9.25;8.35;;;20.40;93.40;;;;;;4959189;29;20473;-84
2022/09/13 05:11:41;;;;;;;11.05;9.57;;;20.40;93.40;;;;;;4958598;29;20097;-85
2022/09/13 05:14:19;;;;;;;9.10;8.20;;;20.40;93.40;;;;;;4941641;29;20028;-83
2022/09/13 05:16:47;;;;;;;8.98;8.02;;;20.40;93.40;;;;;;4957963;29;20417;-84
2022/09/13 05:19:12;;;;;;;10.00;8.70;;;20.40;93.40;;;;;;4959701;29;20374;-84
2022/09/13 05:21:38;;;;;;;8.52;7.65;;;20.40;93.40;;;;;;4958749;29;20055;-86
2022/09/13 05:24:04;;;;;;;9.48;8.57;;;20.50;93.50;;;;;;4959407;29;20090;-86
2022/09/13 05:26:42;;;;;;;8.30;7.50;;;20.40;93.50;;;;;;4960849;29;20027;-86
2022/09/13 05:29:09;;;;;;;10.82;9.02;;;20.40;93.50;;;;;;4962387;29;20458;-86
2022/09/13 05:31:39;;;;;;;10.10;8.43;;;20.50;93.60;;;;;;4975192;28;20019;-87
2022/09/13 05:34:19;;;;;;;10.85;8.50;;;20.50;93.50;;;;;;4981851;28;20067;-87
2022/09/13 05:36:46;;;;;;;9.63;7.93;;;20.50;93.50;;;;;;4982328;28;20103;-87
2022/09/13 05:39:16;;;;;;;9.70;8.45;;;20.40;93.40;;;;;;4965890;28;20090;-86
2022/09/13 05:41:44;;;;;;;9.77;8.65;;;20.40;93.40;;;;;;4981346;28;20481;-86
2022/09/13 05:44:11;;;;;;;10.02;8.73;;;20.40;93.40;;;;;;4948451;29;20038;-86
2022/09/13 05:46:41;;;;;;;9.40;8.45;;;20.40;93.50;;;;;;4942512;29;20485;-87
2022/09/13 05:49:08;;;;;;;9.82;7.38;;;20.40;93.50;;;;;;4942681;29;20114;-87
2022/09/13 05:51:35;;;;;;;7.60;6.82;;;20.40;93.50;;;;;;4942206;29;20549;-85
2022/09/13 05:54:01;;;;;;;7.90;7.20;;;20.40;93.50;;;;;;4941188;29;20034;-85
2022/09/13 05:56:29;;;;;;;10.52;6.88;;;20.40;93.50;;;;;;4956908;28;20121;-86
2022/09/13 05:58:55;;;;;;;8.32;6.57;;;20.40;93.60;;;;;;4957972;29;20063;-85
2022/09/13 06:01:25;;;;;;;7.60;6.80;;;20.40;93.60;;;;;;4957230;29;20393;-87
2022/09/13 06:03:59;;;;;;;7.88;7.18;;;20.40;93.60;;;;;;4941530;29;20027;-86
2022/09/13 06:06:29;;;;;;;9.50;7.47;;;20.50;93.60;;;;;;4957087;29;20027;-87
2022/09/13 06:09:07;;;;;;;;;;;;;;;;;;;;;
2022/09/13 06:11:38;;;;;;;10.85;8.75;;;20.50;93.70;;;;;;4942729;29;20045;-85
2022/09/13 06:14:11;;;;;;;8.95;8.15;;;20.50;93.70;;;;;;4957345;29;20027;-86
2022/09/13 06:16:43;;;;;;;11.57;8.50;;;20.50;93.70;;;;;;4958545;29;20453;-87
2022/09/13 06:19:08;;;;;;;10.30;9.10;;;20.50;93.70;;;;;;4956922;29;20027;-84
2022/09/13 06:21:44;;;;;;;9.73;7.90;;;20.50;93.70;;;;;;4958317;29;20031;-86
2022/09/13 06:24:14;;;;;;;9.68;8.10;;;20.50;93.70;;;;;;4957048;29;20024;-85
2022/09/13 06:26:43;;;;;;;9.88;8.05;;;20.60;93.80;;;;;;4941034;29;20118;-87
2022/09/13 06:29:13;;;;;;;8.52;7.68;;;20.60;93.80;;;;;;4956407;29;20027;-87
2022/09/13 06:31:43;;;;;;;9.20;8.23;;;20.60;93.80;;;;;;4957542;29;20058;-87
2022/09/13 06:34:17;;;;;;;8.73;7.90;;;20.60;93.80;;;;;;4956835;29;20019;-86
2022/09/13 06:36:43;;;;;;;10.68;8.50;;;20.70;93.80;;;;;;4956493;29;20027;-85
2022/09/13 06:39:08;;;;;;;9.80;8.80;;;20.70;93.80;;;;;;4957112;29;20031;-85
2022/09/13 06:41:36;;;;;;;10.55;9.45;;;20.70;93.70;;;;;;4957258;29;20023;-86
2022/09/13 06:44:02;;;;;;;12.70;10.75;;;20.70;93.70;;;;;;4957267;29;20090;-85
2022/09/13 06:46:31;;;;;;;12.23;10.90;;;20.80;93.80;;;;;;4941054;29;20035;-85
2022/09/13 06:49:08;;;;;;;11.70;10.50;;;20.80;93.80;;;;;;4956131;28;20031;-86
2022/09/13 06:51:40;;;;;;;11.10;9.93;;;20.80;93.80;;;;;;4957443;29;20023;-85
2022/09/13 06:54:06;;;;;;;12.00;9.18;;;20.80;93.80;;;;;;4957124;29;20030;-87
2022/09/13 06:56:36;;;;;;;10.82;9.73;;;20.90;93.80;;;;;;4957103;29;20469;-85
2022/09/13 06:59:07;;;;;;;10.40;9.38;;;20.90;93.80;;;;;;4956466;29;20039;-86
2022/09/13 07:01:37;;;;;;;;;;;20.90;94.10;;;;;;4957311;29;20035;-86
2022/09/13 07:04:05;;;;;;;10.40;9.30;;;21.00;93.80;;;;;;4956407;29;19965;-85
2022/09/13 07:06:37;;;;;;;13.98;10.20;;;21.00;93.80;;;;;;4956172;29;20026;-84
2022/09/13 07:09:05;;;;;;;13.27;10.90;;;21.00;93.80;;;;;;4939688;29;20047;-87
2022/09/13 07:11:36;;;;;;;12.35;10.57;;;21.00;93.80;;;;;;4956797;28;20020;-86
2022/09/13 07:14:02;;;;;;;13.48;11.02;;;21.00;93.80;;;;;;4956458;29;20034;-86
2022/09/13 07:16:35;;;;;;;12.77;10.50;;;21.10;93.70;;;;;;4955977;29;20098;-87
2022/09/13 07:19:09;;;;;;;11.05;9.95;;;21.10;93.80;;;;;;4957663;29;20031;-84
2022/09/13 07:21:35;;;;;;;11.85;10.02;;;21.10;93.70;;;;;;4940901;29;20035;-86
2022/09/13 07:24:01;;;;;;;11.68;10.45;;;21.10;93.70;;;;;;4955904;29;20030;-85
2022/09/13 07:26:30;;;;;;;11.40;10.20;;;21.20;93.70;;;;;;4956118;29;20023;-87
2022/09/13 07:28:59;;;;;;;12.73;11.45;;;21.30;93.70;;;;;;4957239;29;20038;-87
2022/09/13 07:31:28;;;;;;;11.75;10.63;;;21.30;93.70;;;;;;4974841;28;20041;-84
2022/09/13 07:33:59;;;;;;;13.50;10.05;;;21.30;93.60;;;;;;4979606;28;20022;-91
2022/09/13 07:36:41;;;;;;;13.35;10.60;;;21.40;93.70;;;;;;4963903;28;20027;-87
2022/09/13 07:39:12;;;;;;;12.27;10.88;;;21.40;93.60;;;;;;4963593;28;20063;-87
2022/09/13 07:41:54;;;;;;;12.35;10.57;;;21.40;93.60;;;;;;4966250;28;20123;-85
2022/09/13 07:44:26;;;;;;;11.85;10.65;;;21.40;93.70;;;;;;4951477;29;20413;-85
2022/09/13 07:46:54;;;;;;;12.38;11.07;;;21.50;93.70;;;;;;4939594;29;20027;-86
2022/09/13 07:49:22;;;;;;;16.38;12.25;;;21.50;93.60;;;;;;4939496;28;20051;-87
2022/09/13 07:51:52;;;;;;;13.20;11.32;;;21.50;93.60;;;;;;4955212;29;20031;-85
2022/09/13 07:54:21;;;;;;;14.55;11.43;;;21.50;93.60;;;;;;4940192;29;20089;-87
2022/09/13 07:56:51;;;;;;;12.43;10.68;;;21.60;93.60;;;;;;4955557;28;20038;-86
2022/09/13 07:59:21;;;;;;;13.88;11.10;;;21.60;93.60;;;;;;4939338;29;20039;-86
2022/09/13 08:01:49;;;;;;;15.98;14.07;;;21.60;93.70;;;;;;4956651;29;20027;-86
2022/09/13 08:04:23;;;;;;;13.07;11.65;;;21.60;93.60;;;;;;4955389;29;20097;-87
2022/09/13 08:07:02;;;;;;;13.70;11.25;;;21.70;93.60;;;;;;4956637;29;20055;-85
2022/09/13 08:09:29;;;;;;;10.68;9.57;;;21.60;93.60;;;;;;4956279;29;20027;-85
2022/09/13 08:11:55;;;;;;;11.40;9.07;;;21.70;93.70;;;;;;4938678;29;20374;-85
2022/09/13 08:14:25;;;;;;;10.30;8.65;;;21.70;93.70;;;;;;4937930;29;20043;-85
2022/09/13 08:17:05;;;;;;;10.60;9.50;;;21.70;93.70;;;;;;4955396;29;20454;-86
2022/09/13 08:19:31;;;;;;;10.00;8.55;;;21.80;93.80;;;;;;4955249;28;20492;-85
2022/09/13 08:21:57;;;;;;;9.05;7.40;;;21.80;93.80;;;;;;4939053;29;20027;-86
2022/09/13 08:24:31;;;;;;;8.77;7.57;;;21.90;93.90;;;;;;4939225;29;20038;-87
2022/09/13 08:26:59;;;;;;;9.77;6.82;;;21.90;93.80;;;;;;4955264;29;20485;-87
2022/09/13 08:29:26;;;;;;;9.80;7.57;;;22.00;93.80;;;;;;4955365;29;20031;-84
2022/09/13 08:32:04;;;;;;;7.03;5.72;;;22.00;93.80;;;;;;4939676;29;20498;-85
2022/09/13 08:34:37;;;;;;;8.25;6.38;;;22.10;93.80;;;;;;4939677;29;20039;-86
2022/09/13 08:37:07;;;;;;;7.07;5.07;;;22.20;93.80;;;;;;4939580;29;20043;-87
2022/09/13 08:39:37;;;;;;;6.75;4.50;;;22.20;93.80;;;;;;4955596;29;20065;-86
2022/09/13 08:42:50;;;;;;;6.38;4.10;;;22.30;93.80;;;;;;4955518;29;20042;-85
2022/09/13 08:45:19;;;;;;;5.20;3.80;;;22.30;93.80;;;;;;4914339;29;20094;-86
2022/09/13 08:48:00;;;;;;;4.68;3.33;;;22.30;93.80;;;;;;4955277;29;20037;-87
2022/09/13 08:50:35;;;;;;;4.57;3.67;;;22.30;93.80;;;;;;4932083;29;20054;-86
2022/09/13 08:53:26;;;;;;;5.00;3.97;;;22.40;93.80;;;;;;4955361;29;20078;-87
2022/09/13 08:56:56;;;;;;;;;;;;;;;;;;;;;
2022/09/13 08:59:45;;;;;;;4.78;3.55;;;22.40;93.80;;;;;;4949965;29;20035;-85
2022/09/13 09:02:25;;;;;;;3.90;3.42;;;22.50;93.70;;;;;;4955219;29;20039;-87
2022/09/13 09:05:12;;;;;;;;;;;22.70;93.70;;;;;;4955691;29;20485;-88
2022/09/13 09:08:15;;;;;;;7.32;5.00;;;22.70;93.60;;;;;;4955797;29;20005;-87
2022/09/13 09:10:45;;;;;;;6.50;5.90;;;22.70;93.50;;;;;;4955330;29;20544;-87
2022/09/13 09:13:27;;;;;;;6.82;5.18;;;22.70;93.50;;;;;;4955899;29;20028;-86
2022/09/13 09:16:16;;;;;;;5.05;4.53;;;22.70;93.50;;;;;;4955722;29;20042;-87
2022/09/13 09:18:50;;;;;;;10.45;8.18;;;22.80;93.60;;;;;;4956506;29;20019;-87
2022/09/13 09:21:17;;;;;;;10.68;8.18;;;22.80;93.40;;;;;;4957366;29;20036;-88
2022/09/13 09:23:50;;;;;;;8.30;6.80;;;22.90;93.40;;;;;;4957312;29;20031;-87
2022/09/13 09:26:36;;;;;;;5.38;4.88;;;22.80;93.30;;;;;;4957433;29;20027;-87
2022/09/13 09:29:24;;;;;;;9.68;7.68;;;22.80;93.40;;;;;;4961203;29;20078;-86
2022/09/13 09:31:59;;;;;;;9.45;6.82;;;22.90;93.30;;;;;;4961927;28;20119;-86
2022/09/13 09:34:48;;;;;;;9.48;7.43;;;22.80;93.30;;;;;;4976937;28;20090;-87
2022/09/13 09:37:29;;;;;;;7.70;6.65;;;22.90;93.30;;;;;;4981192;28;20007;-88
2022/09/13 09:40:05;;;;;;;6.20;5.43;;;22.90;93.20;;;;;;4963515;29;20043;-86
2022/09/13 09:42:47;;;;;;;8.60;6.57;;;22.90;93.20;;;;;;4977111;29;20043;-87
2022/09/13 09:45:35;;;;;;;8.18;6.82;;;22.90;93.20;;;;;;4949001;29;20093;-87
2022/09/13 09:48:09;;;;;;;7.82;6.30;;;23.00;93.20;;;;;;4959989;29;20032;-87
2022/09/13 09:50:48;;;;;;;6.75;6.00;;;23.00;93.10;;;;;;4938958;29;20090;-86
2022/09/13 09:53:27;;;;;;;6.15;5.55;;;23.00;93.10;;;;;;4956946;29;20036;-86
2022/09/13 09:56:24;;;;;;;5.90;5.03;;;23.00;93.00;;;;;;4942508;29;20054;-86
2022/09/13 09:58:59;;;;;;;6.20;5.60;;;23.00;93.00;;;;;;4957667;29;20062;-86
2022/09/13 10:01:49;;;;;;;6.93;5.53;;;23.10;93.00;;;;;;4942425;29;20043;-86
2022/09/13 10:04:26;;;;;;;6.65;4.90;;;23.10;93.00;;;;;;4957872;29;20477;-86
2022/09/13 10:07:29;;;;;;;5.85;4.57;;;23.10;93.00;;;;;;4957934;29;20031;-87
2022/09/13 10:10:33;;;;;;;6.05;5.45;;;23.10;93.00;;;;;;4958165;29;20023;-86
2022/09/13 10:13:24;;;;;;;6.22;5.00;;;23.10;92.80;;;;;;4957547;29;20030;-87
2022/09/13 10:16:26;;;;;;;5.13;4.28;;;23.10;92.80;;;;;;4957981;29;20094;-85
2022/09/13 10:19:23;;;;;;;5.25;4.40;;;23.10;92.80;;;;;;4957537;29;20365;-87
2022/09/13 10:22:11;;;;;;;7.93;4.95;;;23.20;92.90;;;;;;4958047;29;20031;-86
2022/09/13 10:24:40;;;;;;;5.65;4.00;;;23.30;92.80;;;;;;4957515;29;20030;-85
2022/09/13 10:27:24;;;;;;;4.85;3.90;;;23.30;92.80;;;;;;4941294;29;20035;-87
2022/09/13 10:30:03;;;;;;;4.30;3.88;;;23.40;92.60;;;;;;4941782;29;20038;-87
2022/09/13 10:32:30;;;;;;;6.70;3.92;;;23.40;92.50;;;;;;4942356;29;20047;-86
2022/09/13 10:35:08;;;;;;;5.05;3.22;;;23.40;92.30;;;;;;4957221;29;20031;-85
2022/09/13 10:37:43;;;;;;;6.00;3.55;;;23.40;92.30;;;;;;4941363;29;20051;-84
2022/09/13 10:40:30;;;;;;;5.95;3.58;;;23.40;92.30;;;;;;4956981;29;20492;-87
2022/09/13 10:43:02;;;;;;;7.32;3.50;;;23.40;92.50;;;;;;4956555;28;20054;-86
2022/09/13 10:45:31;;;;;;;6.20;3.03;;;23.50;92.40;;;;;;4941224;29;20465;-86
2022/09/13 10:48:05;;;;;;;5.85;2.58;;;23.50;92.30;;;;;;4941616;29;20056;-86
2022/09/13 10:50:32;;;;;;;2.80;2.42;;;23.50;92.30;;;;;;4956116;28;20123;-85
2022/09/13 10:53:38;;;;;;;3.47;2.50;;;23.70;92.20;;;;;;4941179;29;20039;-86
2022/09/13 10:56:28;;;;;;;5.03;2.92;;;23.60;91.90;;;;;;4945108;29;20031;-86
2022/09/13 10:59:29;;;;;;;3.10;2.72;;;23.50;91.70;;;;;;4943822;29;20544;-86
2022/09/13 11:02:17;;;;;;;3.72;2.92;;;23.40;91.80;;;;;;4956872;29;20035;-86
2022/09/13 11:05:05;;;;;;;3.35;2.97;;;23.40;91.80;;;;;;4956202;29;20032;-87
2022/09/13 11:07:55;;;;;;;4.35;3.42;;;23.50;91.70;;;;;;4956890;29;20561;-87
2022/09/13 11:10:43;;;;;;;4.57;2.60;;;23.50;91.50;;;;;;4957195;29;20102;-86
2022/09/13 11:13:33;;;;;;;3.08;2.40;;;23.50;91.60;;;;;;4956478;29;20042;-86
2022/09/13 11:16:36;;;;;;;2.75;2.47;;;23.50;91.60;;;;;;4956888;29;20035;-87
2022/09/13 11:19:45;;;;;;;2.58;2.38;;;23.60;91.50;;;;;;4955838;29;20398;-86
2022/09/13 11:22:32;;;;;;;3.33;2.25;;;23.70;91.60;;;;;;4957809;29;20035;-85
2022/09/13 11:25:35;;;;;;;3.00;2.40;;;23.70;91.50;;;;;;4941512;29;20027;-85
2022/09/13 11:28:14;;;;;;;3.63;1.95;;;23.80;91.30;;;;;;4955611;29;20110;-87
2022/09/13 11:31:05;;;;;;;2.55;1.80;;;23.80;91.10;;;;;;4937646;29;20102;-85
2022/09/13 11:33:57;;;;;;;;;;;;;;;;;;;;;
2022/09/13 11:36:42;;;;;;;3.55;1.70;;;23.90;91.00;;;;;;4939820;29;20485;-86
2022/09/13 11:39:23;;;;;;;2.58;1.45;;;23.90;91.00;;;;;;4944824;29;20083;-87
2022/09/13 11:42:22;;;;;;;3.22;1.60;;;24.00;91.10;;;;;;4974069;29;20022;-87
2022/09/13 11:45:25;;;;;;;3.35;1.55;;;24.00;90.80;;;;;;4963606;28;20035;-86
2022/09/13 11:48:03;;;;;;;1.90;1.30;;;24.00;90.30;;;;;;4979850;28;20043;-86
2022/09/13 11:50:53;;;;;;;3.67;1.92;;;24.10;90.50;;;;;;4966563;29;20058;-86
2022/09/13 11:53:31;;;;;;;1.73;1.30;;;24.10;90.10;;;;;;4953407;28;20039;-86
2022/09/13 11:56:10;;;;;;;3.20;1.38;;;24.00;90.20;;;;;;4939478;29;20023;-87
2022/09/13 11:58:45;;;;;;;1.85;1.10;;;24.10;90.10;;;;;;4940017;29;20159;-87
2022/09/13 12:01:29;;;;;;;1.88;0.82;;;24.00;90.10;;;;;;4939839;28;20036;-86
2022/09/13 12:04:05;;;;;;;2.80;1.27;;;24.10;90.30;;;;;;4936806;29;20059;-86
2022/09/13 12:06:49;;;;;;;2.05;1.20;;;24.10;90.30;;;;;;4937356;29;20055;-86
2022/09/13 12:10:05;;;;;;;1.80;1.35;;;24.20;90.10;;;;;;4920591;29;20032;-86
2022/09/13 12:12:36;;;;;;;2.50;1.15;;;24.20;90.10;;;;;;4918757;29;20038;-86
2022/09/13 12:15:38;;;;;;;1.35;0.95;;;24.30;90.10;;;;;;4922696;29;20057;-86
2022/09/13 12:18:19;;;;;;;1.50;0.90;;;24.40;89.80;;;;;;4938296;29;20043;-87
2022/09/13 12:21:18;;;;;;;0.70;0.70;;;24.40;89.50;;;;;;4939663;29;20027;-86
2022/09/13 12:24:11;;;;;;;2.65;0.63;;;24.50;89.60;;;;;;4954166;29;20043;-85
2022/09/13 12:26:59;;;;;;;1.65;0.80;;;24.50;89.50;;;;;;4939804;29;20023;-87
2022/09/13 12:29:47;;;;;;;1.17;0.52;;;24.50;89.00;;;;;;4939170;29;20025;-87
2022/09/13 12:32:14;;;;;;;1.65;0.70;;;24.50;89.50;;;;;;4940034;29;20027;-85
2022/09/13 12:35:08;;;;;;;1.50;0.82;;;24.50;89.80;;;;;;4938606;29;20454;-84
2022/09/13 12:38:18;;;;;;;2.83;0.80;;;24.50;89.70;;;;;;4955249;29;20035;-86
2022/09/13 12:41:12;;;;;;;1.90;0.85;;;24.50;88.90;;;;;;4939131;29;20078;-86
2022/09/13 12:43:52;;;;;;;1.73;0.80;;;24.50;88.00;;;;;;4957690;28;20027;-86
2022/09/13 12:46:57;;;;;;;1.17;0.63;;;24.50;87.50;;;;;;4955366;29;20035;-87
2022/09/13 12:49:46;;;;;;;1.92;0.80;;;24.50;87.70;;;;;;4954503;29;20508;-85
2022/09/13 12:52:31;;;;;;;1.15;0.50;;;24.50;86.90;;;;;;4946676;29;20133;-87
2022/09/13 12:55:29;;;;;;;0.95;0.77;;;24.50;87.30;;;;;;4952368;29;20470;-86
2022/09/13 12:58:42;;;;;;;1.13;0.80;;;24.60;87.30;;;;;;4938565;29;20501;-86
2022/09/13 13:01:32;;;;;;;0.63;0.50;;;24.70;87.70;;;;;;4955410;29;20042;-85
2022/09/13 13:04:12;;;;;;;15.25;13.18;;;24.70;87.10;;;;;;4939404;29;20024;-86
2022/09/13 13:07:01;;;;;;;5.22;4.72;;;24.70;87.40;;;;;;4955402;28;20374;-86
2022/09/13 13:09:44;;;;;;;3.10;1.55;;;24.70;86.50;;;;;;4959839;29;20110;-85
2022/09/13 13:12:35;;;;;;;2.88;0.80;;;24.70;85.00;;;;;;4943034;29;20028;-84
2022/09/13 13:15:16;;;;;;;;;;;;;;;;;;;;;
2022/09/13 13:17:53;;;;;;;1.15;0.63;;;24.80;85.40;;;;;;4941870;29;20039;-87
2022/09/13 13:20:48;;;;;;;1.25;0.57;;;24.80;84.90;;;;;;4941256;29;20023;-88
2022/09/13 13:23:38;;;;;;;1.75;0.60;;;24.80;85.30;;;;;;4939797;29;20525;-87
2022/09/13 13:26:48;;;;;;;0.90;0.63;;;24.80;85.40;;;;;;4941607;29;20031;-87
2022/09/13 13:29:30;;;;;;;0.73;0.50;;;24.90;86.10;;;;;;4937358;29;20031;-87
2022/09/13 13:32:19;;;;;;;1.67;0.82;;;25.00;85.90;;;;;;4959234;29;20081;-86
2022/09/13 13:34:49;;;;;;;1.85;0.60;;;25.00;84.90;;;;;;4960586;29;20023;-86
2022/09/13 13:37:43;;;;;;;;;;;;;;;;;;;;;
2022/09/13 13:40:24;;;;;;;;;;;;;;;;;;;;;
2022/09/13 13:43:48;;;;;;;;;;;;;;;;;;;;;
2022/09/13 13:46:30;;;;;;;;;;;;;;;;;;;;;
2022/09/13 13:49:34;;;;;;;1.63;0.90;;;25.20;84.80;;;;;;4976882;29;20066;-87